Time;durP1;ratioP1;P1;durP2;ratioP2;P2;SDS_P1;SDS_P2;PMS_P1;PMS_P2;Temp;Humidity;BMP_temperature;BMP_pressure;BME280_temperature;BME280_humidity;BME280_pressure;Samples;Min_cycle;Max_cycle;Signal;HPM_P1;HPM_P2
2022/02/02 00:01:40;;;;;;;0.20;0.10;;;10.60;99.90;;;;;;25711744;23;20204;-76
2022/02/02 00:22:11;;;;;;;0.20;0.10;;;11.00;99.90;;;;;;25682424;23;20208;-68
2022/02/02 00:32:24;;;;;;;0.20;0.10;;;10.80;99.90;;;;;;25708696;23;20245;-67
2022/02/02 00:42:30;;;;;;;0.20;0.10;;;10.60;99.90;;;;;;25709829;23;20192;-67
2022/02/02 00:52:33;;;;;;;0.20;0.10;;;10.70;99.90;;;;;;25699489;23;20165;-68
2022/02/02 01:02:38;;;;;;;0.20;0.10;;;10.80;99.90;;;;;;25693175;23;20557;-68
2022/02/02 01:12:52;;;;;;;0.20;0.10;;;10.90;99.90;;;;;;25692404;23;20208;-73
2022/02/02 01:33:21;;;;;;;0.20;0.10;;;10.20;99.90;;;;;;25674799;23;20162;-71
2022/02/02 01:43:31;;;;;;;0.20;0.10;;;9.60;99.90;;;;;;25699704;23;20212;-74
2022/02/02 01:53:46;;;;;;;0.20;0.03;;;10.10;99.90;;;;;;25673312;23;20168;-69
2022/02/02 02:03:51;;;;;;;0.20;0.10;;;9.80;99.90;;;;;;25699305;23;20281;-67
2022/02/02 02:24:20;;;;;;;0.20;0.10;;;9.90;99.90;;;;;;25679635;23;20208;-75
2022/02/02 02:34:36;;;;;;;0.20;0.10;;;10.40;99.90;;;;;;25714655;23;20176;-74
2022/02/02 03:57:30;;;;;;;0.20;0.10;;;9.50;99.90;;;;;;25709725;23;20164;-72
2022/02/02 04:07:46;;;;;;;0.20;0.10;;;8.90;99.90;;;;;;25709309;23;20240;-72
2022/02/02 04:39:06;;;;;;;0.20;0.10;;;9.70;99.90;;;;;;25709088;23;20165;-67
2022/02/02 05:00:06;;;;;;;0.20;0.10;;;10.10;99.90;;;;;;25589715;23;20193;-67
2022/02/02 05:10:24;;;;;;;0.20;0.07;;;9.80;99.90;;;;;;25714672;23;20658;-66
2022/02/02 05:52:01;;;;;;;0.20;0.10;;;9.60;99.90;;;;;;25716518;23;20663;-65
2022/02/02 06:02:10;;;;;;;0.20;0.10;;;9.30;99.90;;;;;;25713899;23;20193;-66
2022/02/02 06:12:18;;;;;;;0.20;0.10;;;9.60;99.90;;;;;;25712786;23;20683;-66
2022/02/02 06:22:23;;;;;;;0.20;0.10;;;10.80;99.90;;;;;;25713504;23;20153;-66
2022/02/02 06:32:33;;;;;;;0.20;0.10;;;10.60;99.90;;;;;;25686255;23;20232;-67
2022/02/02 06:42:37;;;;;;;0.20;0.10;;;10.00;99.90;;;;;;25712504;23;20177;-73
2022/02/02 06:52:49;;;;;;;0.20;0.10;;;9.70;99.90;;;;;;25685036;23;20269;-73
2022/02/02 07:03:08;;;;;;;0.20;0.00;;;9.20;99.90;;;;;;25710795;23;20263;-79
2022/02/02 07:13:28;;;;;;;0.20;0.00;;;9.30;99.90;;;;;;25703736;23;20827;-72
2022/02/02 07:23:57;;;;;;;0.20;0.10;;;9.40;99.90;;;;;;25709600;23;20639;-73
2022/02/02 07:34:08;;;;;;;0.20;0.03;;;9.10;99.90;;;;;;25710189;23;20277;-72
2022/02/02 07:44:17;;;;;;;0.20;0.10;;;9.20;99.90;;;;;;25708926;23;20232;-70
2022/02/02 07:54:28;;;;;;;0.20;0.10;;;9.30;99.90;;;;;;25709122;23;20916;-67
2022/02/02 08:04:39;;;;;;;0.20;0.10;;;9.50;99.90;;;;;;25709713;23;20637;-67
2022/02/02 08:14:52;;;;;;;0.20;0.10;;;9.70;99.90;;;;;;25705265;23;20259;-73
2022/02/02 08:24:56;;;;;;;0.20;0.00;;;10.20;99.90;;;;;;25709117;23;20193;-71
2022/02/02 08:35:01;;;;;;;0.20;0.10;;;10.60;99.90;;;;;;25723549;23;20177;-73
2022/02/02 08:45:17;;;;;;;0.20;0.00;;;11.20;99.90;;;;;;25728909;23;20243;-74
2022/02/02 08:55:47;;;;;;;0.20;0.10;;;11.30;99.90;;;;;;25726657;23;20173;-76
2022/02/02 09:05:46;;;;;;;0.20;0.10;;;11.80;99.90;;;;;;25721274;23;20205;-75
2022/02/02 09:31:26;;;;;;;0.20;0.10;;;12.90;99.90;;;;;;25725817;23;20200;-75
2022/02/02 09:36:52;;;;;;;0.20;0.10;;;13.60;99.90;;;;;;25723487;23;20566;-76
2022/02/02 09:47:02;;;;;;;0.20;0.10;;;14.00;99.90;;;;;;25717021;23;20205;-75
2022/02/02 10:09:50;;;;;;;0.20;0.10;;;14.50;99.90;;;;;;25711122;23;20197;-74
2022/02/02 10:19:54;;;;;;;0.20;0.10;;;14.60;99.90;;;;;;25719511;23;20224;-77
2022/02/02 10:30:08;;;;;;;0.20;0.20;;;14.90;99.90;;;;;;25712629;23;20216;-75
2022/02/02 10:40:11;;;;;;;0.20;0.10;;;15.20;99.90;;;;;;25711949;23;20370;-74
2022/02/02 10:50:23;;;;;;;0.20;0.10;;;15.60;99.90;;;;;;25711731;23;20197;-73
2022/02/02 11:00:33;;;;;;;0.20;0.10;;;16.70;99.90;;;;;;25721831;23;20189;-67
2022/02/02 11:10:38;;;;;;;0.20;0.00;;;16.70;99.90;;;;;;25707806;23;20497;-66
2022/02/02 11:20:41;;;;;;;0.20;0.10;;;17.10;99.90;;;;;;25710235;23;20674;-69
2022/02/02 11:30:49;;;;;;;0.20;0.10;;;18.00;99.90;;;;;;25708542;23;20663;-67
2022/02/02 11:41:16;;;;;;;0.20;0.10;;;18.10;99.90;;;;;;25707094;23;20169;-68
2022/02/02 11:51:39;;;;;;;0.20;0.10;;;18.30;99.90;;;;;;25697346;23;20205;-67
2022/02/02 12:01:45;;;;;;;0.20;0.00;;;19.00;99.90;;;;;;25704589;23;20212;-73
2022/02/02 12:53:50;;;;;;;0.20;0.10;;;20.30;99.90;;;;;;25707040;23;20292;-76
2022/02/02 13:03:59;;;;;;;0.27;0.23;;;20.40;99.90;;;;;;25705620;23;20233;-74
2022/02/02 13:14:11;;;;;;;0.20;0.00;;;20.60;99.90;;;;;;25705391;23;20249;-73
2022/02/02 13:24:24;;;;;;;0.20;0.10;;;20.60;99.90;;;;;;25711842;23;20526;-74
2022/02/02 13:34:42;;;;;;;0.20;0.00;;;20.90;99.90;;;;;;25705445;23;20576;-74
2022/02/02 13:45:09;;;;;;;0.20;0.10;;;20.50;99.90;;;;;;25710048;23;20575;-73
2022/02/02 13:55:37;;;;;;;0.80;0.80;;;20.60;99.90;;;;;;25712498;23;20260;-73
2022/02/02 14:06:00;;;;;;;0.20;0.10;;;20.60;99.90;;;;;;25710672;23;20237;-74
2022/02/02 14:36:56;;;;;;;0.20;0.13;;;20.80;99.90;;;;;;25658387;23;20255;-68
2022/02/02 14:47:09;;;;;;;1.07;1.07;;;21.00;99.90;;;;;;25736638;23;20200;-78
2022/02/02 15:28:23;;;;;;;0.20;0.10;;;21.00;99.90;;;;;;25714229;23;20348;-77
2022/02/02 15:38:29;;;;;;;1.63;1.10;;;21.20;99.90;;;;;;25703839;23;20600;-77
2022/02/02 15:58:58;;;;;;;0.20;0.10;;;18.90;99.90;;;;;;25704088;23;20283;-80
2022/02/02 16:09:15;;;;;;;0.20;0.10;;;18.30;99.90;;;;;;25704480;23;20377;-76
2022/02/02 16:19:27;;;;;;;0.20;0.00;;;17.70;99.90;;;;;;25708468;23;20173;-79
2022/02/02 16:39:59;;;;;;;0.20;0.00;;;16.30;99.90;;;;;;25708983;23;20184;-83
2022/02/02 16:50:03;;;;;;;0.20;0.10;;;14.90;99.90;;;;;;25707127;23;20264;-82
2022/02/02 17:31:19;;;;;;;0.20;0.10;;;13.10;99.90;;;;;;25705092;23;20271;-66
2022/02/02 17:41:52;;;;;;;0.20;0.10;;;12.80;99.90;;;;;;25705345;23;20188;-67
2022/02/02 18:13:08;;;;;;;0.20;0.10;;;12.00;99.90;;;;;;25705206;23;20204;-72
2022/02/02 18:23:22;;;;;;;0.20;0.10;;;11.90;99.90;;;;;;25704219;23;20204;-74
2022/02/02 18:33:37;;;;;;;0.20;0.10;;;11.50;99.90;;;;;;25705023;23;20495;-72
2022/02/02 18:54:26;;;;;;;1.40;1.40;;;11.00;99.90;;;;;;25552158;23;20205;-71
2022/02/02 19:05:11;;;;;;;0.20;0.10;;;11.00;99.90;;;;;;25705245;23;20211;-74
2022/02/02 19:57:20;;;;;;;0.20;0.10;;;11.20;99.90;;;;;;25704654;23;20236;-70
2022/02/02 20:17:46;;;;;;;0.20;0.10;;;11.20;99.90;;;;;;25703312;23;20181;-73
2022/02/02 20:28:03;;;;;;;0.20;0.10;;;10.70;99.90;;;;;;25702739;23;20606;-73
2022/02/02 20:38:06;;;;;;;0.20;0.10;;;10.70;99.90;;;;;;25703880;23;20614;-70
2022/02/02 21:09:11;;;;;;;0.20;0.10;;;9.90;99.90;;;;;;25709313;23;20286;-73
2022/02/02 21:19:24;;;;;;;0.43;0.37;;;9.60;99.90;;;;;;25709073;23;20265;-71
2022/02/02 21:29:29;;;;;;;0.20;0.10;;;9.50;99.90;;;;;;25709838;23;20197;-70
2022/02/02 21:39:36;;;;;;;0.20;0.20;;;9.60;99.90;;;;;;25710511;23;20642;-71
2022/02/02 21:49:44;;;;;;;0.30;0.30;;;9.30;99.90;;;;;;25715390;23;20185;-66
2022/02/02 21:59:49;;;;;;;0.20;0.03;;;9.40;99.90;;;;;;25714993;23;20648;-68
2022/02/02 22:09:56;;;;;;;0.33;0.33;;;9.10;99.90;;;;;;25712959;23;20287;-66
2022/02/02 22:20:04;;;;;;;0.20;0.10;;;8.90;99.90;;;;;;25714315;23;20177;-67
2022/02/02 22:30:11;;;;;;;0.20;0.00;;;8.80;99.90;;;;;;25714162;23;20609;-66
2022/02/02 22:40:22;;;;;;;0.20;0.10;;;8.50;99.90;;;;;;25713585;23;20644;-67
2022/02/02 22:50:27;;;;;;;0.20;0.10;;;8.50;99.90;;;;;;25711927;23;20515;-66
2022/02/02 23:00:35;;;;;;;1.53;1.43;;;8.10;99.90;;;;;;25711991;23;20201;-66
2022/02/02 23:10:41;;;;;;;0.20;0.00;;;8.30;99.90;;;;;;25709604;23;20209;-66
2022/02/02 23:20:49;;;;;;;0.20;0.00;;;8.00;99.90;;;;;;25711129;23;20638;-66
2022/02/02 23:31:00;;;;;;;0.20;0.10;;;7.80;99.90;;;;;;25710681;23;20332;-66
2022/02/02 23:51:33;;;;;;;0.20;0.07;;;7.90;99.90;;;;;;25711193;23;20278;-73
